Terminal Aerodrome Forecast
Issued by NWS Newport/Morehead City, NC

Home | Current Version | Previous Version | Graphics & Text | Print | Product List | Glossary On
Versions: 1 2 3 4 5 6 7 8 9 10 11 12 13 14
186
FTUS42 KMHX 261128
TAFEWN
TAF
KEWN 261128Z 2612/2712 05005KT P6SM BKN035
     FM261400 07006KT P6SM SCT050
     FM262000 11006KT P6SM SCT050
     FM270500 VRB04KT P6SM BKN080
     FM270800 VRB03KT P6SM BKN025=

USA.gov is the U.S. government's official web portal to all federal, state and local government web resources and services.